Time;durP1;ratioP1;P1;durP2;ratioP2;P2;SDS_P1;SDS_P2;PMS_P1;PMS_P2;Temp;Humidity;BMP_temperature;BMP_pressure;BME280_temperature;BME280_humidity;BME280_pressure;Samples;Min_cycle;Max_cycle;Signal;HPM_P1;HPM_P2
2022/04/05 00:01:19;;;;;;;3.20;1.37;;;;;;;4.91;88.06;95806.47;5037085;28;20584;-69
2022/04/05 00:03:45;;;;;;;1.20;1.10;;;;;;;4.76;89.03;95799.34;5036824;28;20225;-69
2022/04/05 00:06:12;;;;;;;1.37;1.27;;;;;;;5.08;87.49;95796.94;5036778;28;20726;-69
2022/04/05 00:08:38;;;;;;;0.90;0.90;;;;;;;4.99;87.51;95787.41;5036762;28;20495;-70
2022/04/05 00:11:06;;;;;;;1.60;1.50;;;;;;;5.16;87.65;95797.00;5037226;28;20295;-69
2022/04/05 00:13:33;;;;;;;4.10;1.57;;;;;;;5.07;87.45;95790.09;5035757;28;20204;-69
2022/04/05 00:15:59;;;;;;;1.83;1.17;;;;;;;4.98;87.55;95788.41;5035775;28;20232;-69
2022/04/05 00:18:26;;;;;;;3.40;1.53;;;;;;;4.97;87.84;95784.94;5036167;28;20209;-70
2022/04/05 00:20:52;;;;;;;1.73;1.53;;;;;;;4.85;88.10;95774.94;5035877;28;20250;-69
2022/04/05 00:23:19;;;;;;;1.40;1.30;;;;;;;4.82;88.02;95776.06;5035453;28;20287;-70
2022/04/05 00:25:45;;;;;;;1.47;1.37;;;;;;;4.82;88.59;95768.25;5036158;28;20667;-69
2022/04/05 00:28:13;;;;;;;0.80;0.80;;;;;;;4.90;88.87;95757.84;5035711;28;20231;-70
2022/04/05 00:30:40;;;;;;;2.87;2.13;;;;;;;4.94;88.01;95759.16;5036257;28;20220;-70
2022/04/05 00:33:06;;;;;;;3.23;1.60;;;;;;;4.90;88.13;95763.06;5035581;28;20491;-69
2022/04/05 00:35:33;;;;;;;2.13;1.47;;;;;;;4.83;89.04;95754.19;5035577;28;20232;-69
2022/04/05 00:37:59;;;;;;;1.13;1.03;;;;;;;4.99;88.27;95754.31;5035964;28;20209;-70
2022/04/05 00:40:26;;;;;;;1.80;1.03;;;;;;;4.97;87.99;95753.63;5035729;28;20514;-70
2022/04/05 00:42:54;;;;;;;2.80;1.83;;;;;;;4.90;88.48;95765.66;5033373;28;20509;-69
2022/04/05 00:45:22;;;;;;;3.23;1.40;;;;;;;4.97;89.06;95748.41;5037708;28;20296;-69
2022/04/05 00:47:51;;;;;;;1.50;1.33;;;;;;;5.04;89.04;95752.03;5039855;28;20205;-70
2022/04/05 00:50:20;;;;;;;1.50;1.03;;;;;;;4.93;89.87;95748.88;5040233;28;20209;-69
2022/04/05 00:52:47;;;;;;;3.43;1.83;;;;;;;4.85;89.11;95749.66;5038770;28;20200;-69
2022/04/05 00:55:13;;;;;;;1.73;1.63;;;;;;;4.70;89.52;95739.94;5039932;28;20205;-69
2022/04/05 00:57:41;;;;;;;2.10;1.47;;;;;;;5.08;88.96;95740.31;5040248;28;20217;-69
2022/04/05 01:00:09;;;;;;;1.70;1.13;;;;;;;4.88;89.44;95733.66;5039910;28;20216;-70
2022/04/05 01:02:39;;;;;;;3.67;1.93;;;;;;;4.88;89.87;95736.28;5038928;28;20208;-70
2022/04/05 01:05:07;;;;;;;2.23;1.80;;;;;;;5.00;89.03;95736.84;5039248;28;20229;-70
2022/04/05 01:07:40;;;;;;;4.37;1.57;;;;;;;5.08;88.83;95737.69;5039017;28;20669;-69
2022/04/05 01:10:08;;;;;;;1.70;1.37;;;;;;;4.96;89.01;95741.56;5039047;28;20741;-70
2022/04/05 01:12:34;;;;;;;1.70;1.37;;;;;;;4.68;89.47;95733.22;5039292;28;20564;-70
2022/04/05 01:15:01;;;;;;;0.97;0.87;;;;;;;4.82;88.51;95734.31;5039398;28;20232;-69
2022/04/05 01:17:27;;;;;;;3.60;1.80;;;;;;;5.06;87.69;95731.00;5039046;28;20225;-70
2022/04/05 01:19:55;;;;;;;3.90;2.00;;;;;;;5.22;87.53;95734.50;5038969;28;20204;-70
2022/04/05 01:22:22;;;;;;;3.93;2.07;;;;;;;4.91;87.99;95725.56;5039128;28;20585;-69
2022/04/05 01:24:51;;;;;;;1.87;1.27;;;;;;;5.18;88.03;95734.97;5039190;28;20590;-69
2022/04/05 01:27:19;;;;;;;1.83;1.50;;;;;;;4.92;87.54;95721.94;5039438;28;20220;-69
2022/04/05 01:29:47;;;;;;;2.33;1.77;;;;;;;5.11;86.88;95732.16;5039247;28;20205;-70
2022/04/05 01:32:13;;;;;;;1.83;1.50;;;;;;;5.11;86.53;95724.31;5038776;28;20205;-70
2022/04/05 01:34:40;;;;;;;2.30;1.57;;;;;;;5.21;86.12;95725.03;5038591;28;20209;-70
2022/04/05 01:37:08;;;;;;;2.30;1.63;;;;;;;5.18;86.66;95732.34;5039056;28;20706;-70
2022/04/05 01:39:36;;;;;;;1.97;1.47;;;;;;;5.06;87.21;95731.81;5039279;28;20877;-69
2022/04/05 01:42:06;;;;;;;2.27;1.80;;;;;;;5.22;86.56;95731.91;5039035;28;20204;-70
2022/04/05 01:44:35;;;;;;;1.67;1.23;;;;;;;5.08;86.88;95724.66;5037140;28;20229;-69
2022/04/05 01:47:04;;;;;;;3.27;1.17;;;;;;;5.26;86.36;95714.94;5038643;28;20694;-70
2022/04/05 01:49:31;;;;;;;3.33;1.10;;;;;;;5.09;86.07;95713.22;5038393;28;20208;-70
2022/04/05 01:51:57;;;;;;;2.83;1.53;;;;;;;4.99;86.33;95715.13;5039204;28;20790;-69
2022/04/05 01:54:24;;;;;;;2.67;1.70;;;;;;;5.10;85.66;95714.03;5038589;28;20893;-69
2022/04/05 01:56:52;;;;;;;1.57;1.47;;;;;;;5.34;85.57;95716.75;5037847;28;20239;-70
2022/04/05 01:59:22;;;;;;;2.43;1.80;;;;;;;5.44;85.58;95710.41;5038466;28;20216;-70
2022/04/05 02:01:50;;;;;;;3.50;1.83;;;;;;;5.12;85.88;95718.13;5038657;28;20201;-69
2022/04/05 02:04:17;;;;;;;1.97;1.43;;;;;;;5.07;85.61;95720.41;5037188;28;20206;-69
2022/04/05 02:06:44;;;;;;;5.83;0.80;;;;;;;5.19;85.92;95713.91;5038603;28;20233;-69
2022/04/05 02:09:13;;;;;;;3.97;2.17;;;;;;;5.22;85.76;95716.22;5038368;28;20201;-69
2022/04/05 02:11:40;;;;;;;2.23;1.43;;;;;;;5.17;85.83;95708.03;5038442;28;20200;-69
2022/04/05 02:14:07;;;;;;;3.07;2.17;;;;;;;5.02;85.81;95709.59;5037362;28;20209;-70
2022/04/05 02:16:34;;;;;;;2.27;1.33;;;;;;;5.37;84.92;95691.13;5038458;28;20225;-69
2022/04/05 02:19:01;;;;;;;2.20;1.40;;;;;;;5.05;84.95;95687.59;5037623;28;20662;-69
2022/04/05 02:21:27;;;;;;;4.50;1.67;;;;;;;5.14;84.75;95699.69;5038080;28;20924;-69
2022/04/05 02:23:54;;;;;;;3.47;1.90;;;;;;;5.05;84.52;95696.25;5037861;28;20205;-69
2022/04/05 02:26:20;;;;;;;4.43;2.33;;;;;;;5.19;84.31;95703.47;5037658;28;20229;-69
2022/04/05 02:28:48;;;;;;;2.23;1.17;;;;;;;5.17;84.49;95708.03;5037612;28;20696;-69
2022/04/05 02:31:17;;;;;;;3.67;2.33;;;;;;;5.21;84.05;95709.34;5037925;28;20205;-69
2022/04/05 02:33:45;;;;;;;3.63;1.30;;;;;;;5.34;83.99;95698.47;5037576;28;20205;-69
2022/04/05 02:36:11;;;;;;;1.93;1.13;;;;;;;5.19;83.69;95700.03;5037423;28;20872;-69
2022/04/05 02:38:38;;;;;;;1.73;1.63;;;;;;;5.17;83.97;95697.59;5037846;28;20744;-69
2022/04/05 02:41:06;;;;;;;3.07;1.33;;;;;;;5.22;83.96;95697.94;5037917;28;20212;-69
2022/04/05 02:43:33;;;;;;;1.63;1.30;;;;;;;5.30;83.48;95702.38;5031541;28;20415;-69
2022/04/05 02:45:59;;;;;;;0.87;0.83;;;;;;;5.14;83.97;95699.69;5037649;28;20227;-69
2022/04/05 02:48:26;;;;;;;2.97;1.80;;;;;;;5.32;83.78;95701.25;5037964;28;20201;-70
2022/04/05 02:50:55;;;;;;;2.83;2.07;;;;;;;5.34;85.75;95688.81;5037303;28;20211;-70
2022/04/05 02:53:21;;;;;;;4.67;1.47;;;;;;;4.94;86.97;95695.72;5036654;28;20201;-70
2022/04/05 02:55:48;;;;;;;2.60;2.17;;;;;;;5.21;87.17;95683.25;5038396;28;21213;-70
2022/04/05 02:58:14;;;;;;;3.80;2.07;;;;;;;5.22;87.10;95678.81;5037286;28;20198;-70
2022/04/05 03:00:41;;;;;;;1.50;1.40;;;;;;;5.11;87.00;95682.53;5036739;28;20206;-70
2022/04/05 03:03:08;;;;;;;4.00;1.63;;;;;;;5.11;87.54;95686.97;5037290;28;20296;-70
2022/04/05 03:05:34;;;;;;;2.03;1.40;;;;;;;5.09;87.91;95666.25;5037428;28;20228;-70
2022/04/05 03:08:03;;;;;;;2.30;2.10;;;;;;;5.40;88.23;95682.97;5036184;28;20205;-70
2022/04/05 03:10:32;;;;;;;1.27;0.80;;;;;;;4.90;88.59;95678.69;5036642;28;20669;-70
2022/04/05 03:12:59;;;;;;;4.27;1.43;;;;;;;5.23;88.12;95665.63;5036843;28;21266;-70
2022/04/05 03:15:26;;;;;;;2.30;2.10;;;;;;;5.19;87.87;95663.47;5037113;28;20283;-70
2022/04/05 03:17:55;;;;;;;2.50;1.93;;;;;;;5.09;87.93;95668.00;5037273;28;20314;-70
2022/04/05 03:20:21;;;;;;;2.30;1.87;;;;;;;5.00;88.41;95667.19;5036791;28;20543;-70
2022/04/05 03:22:48;;;;;;;0.50;0.50;;;;;;;4.91;88.20;95656.84;5036446;28;20675;-70
2022/04/05 03:25:16;;;;;;;5.40;2.53;;;;;;;5.20;87.66;95670.34;5036929;28;20318;-70
2022/04/05 03:27:44;;;;;;;1.13;0.83;;;;;;;5.20;87.64;95667.75;5036979;28;20213;-69
2022/04/05 03:30:12;;;;;;;3.90;2.40;;;;;;;5.18;88.10;95654.00;5036577;28;20212;-71
2022/04/05 03:32:39;;;;;;;1.50;1.40;;;;;;;5.20;86.58;95667.75;5036258;28;20212;-70
2022/04/05 03:35:07;;;;;;;2.47;1.87;;;;;;;5.16;87.41;95661.19;5037241;28;20205;-70
2022/04/05 03:37:34;;;;;;;4.87;1.97;;;;;;;4.98;87.47;95655.25;5036979;28;20208;-70
2022/04/05 03:40:01;;;;;;;2.60;1.30;;;;;;;5.02;87.31;95665.22;5036586;28;20216;-70
2022/04/05 03:42:29;;;;;;;2.30;1.53;;;;;;;5.21;87.51;95658.94;5034028;28;20209;-70
2022/04/05 03:44:55;;;;;;;3.17;1.07;;;;;;;5.02;87.73;95665.22;5036895;28;20208;-69
2022/04/05 03:47:23;;;;;;;0.77;0.77;;;;;;;5.19;87.42;95668.69;5036318;28;20217;-69
2022/04/05 03:49:50;;;;;;;3.03;2.20;;;;;;;5.06;88.13;95682.19;5036674;28;20213;-69
2022/04/05 03:52:16;;;;;;;3.67;2.13;;;;;;;5.08;88.35;95675.03;5035959;28;21146;-70
2022/04/05 03:54:43;;;;;;;3.57;2.23;;;;;;;5.02;88.75;95672.25;5036402;28;20215;-69
2022/04/05 03:57:09;;;;;;;3.27;1.37;;;;;;;4.97;89.09;95666.66;5036517;28;20240;-69
2022/04/05 03:59:37;;;;;;;4.13;1.87;;;;;;;5.21;89.69;95662.34;5036096;28;20201;-70
2022/04/05 04:02:04;;;;;;;1.33;1.23;;;;;;;5.01;90.04;95673.22;5035896;28;20954;-70
2022/04/05 04:04:31;;;;;;;3.27;2.00;;;;;;;4.91;90.59;95681.19;5036270;28;20201;-70
2022/04/05 04:06:57;;;;;;;3.93;2.17;;;;;;;4.88;90.99;95671.03;5036629;28;20232;-70
2022/04/05 04:09:24;;;;;;;2.63;1.33;;;;;;;4.82;91.29;95682.09;5035713;28;20209;-69
2022/04/05 04:11:51;;;;;;;1.67;1.40;;;;;;;4.89;91.08;95677.09;5036232;28;20214;-70
2022/04/05 04:14:17;;;;;;;3.30;2.23;;;;;;;4.87;92.62;95679.00;5035671;28;20205;-69
2022/04/05 04:16:46;;;;;;;2.90;1.80;;;;;;;4.93;92.62;95681.00;5036482;28;20217;-69
2022/04/05 04:19:13;;;;;;;2.33;1.67;;;;;;;4.78;93.05;95679.13;5035638;28;20732;-69
2022/04/05 04:21:39;;;;;;;3.33;2.80;;;;;;;4.78;93.64;95685.16;5036190;28;20216;-70
2022/04/05 04:24:07;;;;;;;2.80;1.80;;;;;;;4.74;94.22;95683.84;5035543;28;20681;-70
2022/04/05 04:26:33;;;;;;;2.83;1.73;;;;;;;4.74;93.92;95690.88;5035984;28;20225;-70
2022/04/05 04:29:03;;;;;;;7.60;1.13;;;;;;;4.68;94.87;95687.06;5035997;28;20209;-70
2022/04/05 04:31:32;;;;;;;1.60;1.27;;;;;;;4.83;94.82;95693.34;5036421;28;20469;-70
2022/04/05 04:34:01;;;;;;;3.63;1.83;;;;;;;4.87;95.48;95700.72;5035330;28;20287;-70
2022/04/05 04:36:28;;;;;;;5.97;3.00;;;;;;;4.80;95.60;95690.22;5036034;28;20383;-70
2022/04/05 04:38:55;;;;;;;3.23;2.10;;;;;;;4.87;95.28;95700.72;5035605;28;20740;-70
2022/04/05 04:41:22;;;;;;;4.17;2.63;;;;;;;4.78;95.45;95689.59;5035404;28;20669;-70
2022/04/05 04:43:49;;;;;;;2.93;2.20;;;;;;;4.67;95.56;95698.50;5032846;28;20208;-70
2022/04/05 04:46:15;;;;;;;3.53;2.03;;;;;;;4.63;94.82;95698.94;5035862;28;20236;-70
2022/04/05 04:48:43;;;;;;;1.07;1.07;;;;;;;4.68;95.26;95694.91;5035587;28;20890;-70
2022/04/05 04:51:12;;;;;;;3.80;2.33;;;;;;;4.80;95.75;95698.91;5035612;28;20205;-70
2022/04/05 04:53:39;;;;;;;8.30;3.10;;;;;;;4.73;95.90;95695.25;5035198;28;20291;-71
2022/04/05 04:56:05;;;;;;;3.43;1.67;;;;;;;4.68;96.03;95699.31;5036319;28;20225;-72
2022/04/05 04:58:33;;;;;;;2.43;1.43;;;;;;;4.50;96.57;95696.75;5036481;28;20209;-70
2022/04/05 05:00:59;;;;;;;3.17;2.57;;;;;;;4.63;96.19;95701.56;5036253;28;20202;-70
2022/04/05 05:03:26;;;;;;;5.93;2.00;;;;;;;4.53;96.87;95698.22;5036033;28;20202;-70
2022/04/05 05:05:53;;;;;;;5.77;2.80;;;;;;;4.72;96.91;95698.03;5036313;28;20237;-70
2022/04/05 05:08:21;;;;;;;2.73;1.90;;;;;;;4.81;96.43;95705.72;5036310;28;20201;-70
2022/04/05 05:10:48;;;;;;;4.27;2.03;;;;;;;4.73;96.24;95697.06;5035981;28;20205;-70
2022/04/05 05:13:16;;;;;;;2.50;2.03;;;;;;;4.84;95.77;95690.59;5035597;28;20562;-71
2022/04/05 05:15:43;;;;;;;4.77;2.73;;;;;;;4.64;96.42;95690.16;5036173;28;20693;-70
2022/04/05 05:18:09;;;;;;;4.40;2.80;;;;;;;4.84;95.45;95693.19;5036307;28;20206;-71
2022/04/05 05:20:36;;;;;;;6.43;3.63;;;;;;;4.83;95.66;95693.34;5036550;28;20219;-70
2022/04/05 05:23:02;;;;;;;1.30;1.20;;;;;;;4.80;95.81;95696.28;5035238;28;21080;-71
2022/04/05 05:25:30;;;;;;;10.03;2.57;;;;;;;5.01;95.74;95697.50;5036304;28;20224;-70
2022/04/05 05:27:57;;;;;;;2.90;2.50;;;;;;;4.79;95.93;95699.84;5036204;28;20213;-70
2022/04/05 05:30:23;;;;;;;0.93;0.93;;;;;;;4.71;96.30;95688.53;5035802;28;20221;-70
2022/04/05 05:32:51;;;;;;;2.83;1.90;;;;;;;4.72;96.71;95693.59;5037909;28;20209;-70
2022/04/05 05:35:18;;;;;;;3.60;2.43;;;;;;;4.89;95.69;95696.16;5039595;28;20729;-70
2022/04/05 05:37:46;;;;;;;10.07;3.70;;;;;;;4.97;95.70;95698.81;5039698;28;20212;-70
2022/04/05 05:40:14;;;;;;;3.33;1.80;;;;;;;4.91;95.67;95706.44;5039288;28;20212;-70
2022/04/05 05:42:50;;;;;;;4.80;2.80;;;;;;;5.36;94.68;95702.56;5036171;28;20209;-70
2022/04/05 05:45:16;;;;;;;9.43;3.60;;;;;;;5.03;94.75;95700.78;5039381;28;20786;-71
2022/04/05 05:47:43;;;;;;;4.40;2.47;;;;;;;4.97;94.79;95709.25;5038616;28;20369;-70
2022/04/05 05:50:12;;;;;;;2.53;2.20;;;;;;;5.03;94.77;95703.41;5040224;28;20201;-70
2022/04/05 05:52:39;;;;;;;5.97;2.40;;;;;;;5.25;94.16;95705.44;5039368;28;20211;-70
2022/04/05 05:55:07;;;;;;;7.83;3.07;;;;;;;4.96;94.63;95710.25;5038966;28;20212;-70
2022/04/05 05:57:34;;;;;;;13.77;1.47;;;;;;;5.01;95.03;95707.16;5038819;28;20804;-70
2022/04/05 06:00:02;;;;;;;7.13;3.23;;;;;;;5.34;94.16;95714.16;5039834;28;20232;-70
2022/04/05 06:02:28;;;;;;;14.20;4.17;;;;;;;5.23;92.95;95707.41;5038520;28;20220;-70
2022/04/05 06:04:55;;;;;;;4.10;3.53;;;;;;;5.33;92.72;95702.84;5038772;28;20215;-70
2022/04/05 06:07:21;;;;;;;2.30;2.10;;;;;;;5.03;92.86;95710.44;5039132;28;21025;-70
2022/04/05 06:09:48;;;;;;;8.03;3.33;;;;;;;5.19;93.01;95708.69;5038903;28;20578;-70
2022/04/05 06:12:14;;;;;;;5.67;3.30;;;;;;;5.14;93.32;95729.25;5038063;28;20216;-70
2022/04/05 06:14:41;;;;;;;2.97;2.40;;;;;;;5.08;93.89;95719.44;5039006;28;21112;-70
2022/04/05 06:17:08;;;;;;;6.40;3.07;;;;;;;5.13;94.09;95717.16;5038564;28;20225;-70
2022/04/05 06:19:35;;;;;;;2.17;1.80;;;;;;;5.15;93.83;95724.84;5038810;28;20201;-70
2022/04/05 06:22:01;;;;;;;2.30;1.93;;;;;;;5.09;94.02;95734.13;5039131;28;21141;-70
2022/04/05 06:24:28;;;;;;;4.10;3.33;;;;;;;5.04;93.98;95739.00;5038313;28;20216;-70
2022/04/05 06:26:54;;;;;;;8.83;1.97;;;;;;;4.97;94.26;95727.50;5038581;28;20232;-70
2022/04/05 06:29:21;;;;;;;6.23;3.80;;;;;;;5.17;93.97;95718.50;5038646;28;21206;-70
2022/04/05 06:31:47;;;;;;;4.20;2.60;;;;;;;5.38;92.79;95724.09;5038792;28;20216;-70
2022/04/05 06:34:15;;;;;;;2.43;1.87;;;;;;;5.55;93.38;95723.19;5037830;28;21007;-70
2022/04/05 06:36:42;;;;;;;3.10;1.90;;;;;;;5.35;93.24;95716.59;5038886;28;20236;-70
2022/04/05 06:39:08;;;;;;;4.40;2.63;;;;;;;5.25;92.54;95705.44;5038431;28;20216;-70
2022/04/05 06:41:35;;;;;;;5.60;2.80;;;;;;;5.41;91.65;95715.13;5038636;28;20812;-70
2022/04/05 06:44:01;;;;;;;4.93;3.17;;;;;;;5.39;92.40;95707.47;5035734;28;20216;-70
2022/04/05 06:46:28;;;;;;;3.37;1.37;;;;;;;5.35;91.71;95716.59;5038242;28;20690;-70
2022/04/05 06:48:55;;;;;;;1.97;1.83;;;;;;;5.40;91.34;95713.50;5038766;28;20237;-70
2022/04/05 06:51:24;;;;;;;6.13;3.50;;;;;;;5.39;92.37;95730.97;5038340;28;20248;-70
2022/04/05 06:53:51;;;;;;;2.83;2.27;;;;;;;5.40;90.93;95727.38;5038167;28;20295;-70
2022/04/05 06:56:21;;;;;;;4.10;2.47;;;;;;;5.31;92.83;95728.34;5036944;28;21003;-70
2022/04/05 06:58:48;;;;;;;2.93;1.70;;;;;;;5.32;92.33;95731.75;5036867;28;20875;-70
2022/04/05 07:01:15;;;;;;;1.90;1.53;;;;;;;5.43;92.39;95729.69;5037801;28;20229;-70
2022/04/05 07:03:41;;;;;;;5.20;2.63;;;;;;;5.44;91.75;95723.47;5037746;28;20693;-70
2022/04/05 07:06:08;;;;;;;3.83;1.87;;;;;;;5.52;92.20;95736.56;5037000;28;20279;-70
2022/04/05 07:08:36;;;;;;;3.20;1.70;;;;;;;5.48;93.02;95722.19;5037862;28;20201;-70
2022/04/05 07:11:02;;;;;;;5.43;3.73;;;;;;;5.49;92.45;95731.66;5038965;28;20241;-70
2022/04/05 07:13:30;;;;;;;3.40;2.10;;;;;;;5.45;92.06;95722.50;5036834;28;20209;-70
2022/04/05 07:15:57;;;;;;;5.00;2.47;;;;;;;5.52;92.01;95729.56;5037185;28;20225;-70
2022/04/05 07:18:23;;;;;;;5.50;2.40;;;;;;;5.45;92.97;95727.75;5038233;28;20213;-70
2022/04/05 07:20:50;;;;;;;3.93;2.53;;;;;;;5.68;93.46;95731.41;5037648;28;20209;-70
2022/04/05 07:23:17;;;;;;;4.17;2.37;;;;;;;5.52;93.25;95720.88;5036703;28;20201;-70
2022/04/05 07:25:45;;;;;;;2.97;2.13;;;;;;;5.64;92.91;95723.06;5037834;28;20221;-70
2022/04/05 07:28:11;;;;;;;8.83;3.47;;;;;;;5.37;92.81;95730.31;5036977;28;20221;-70
2022/04/05 07:30:38;;;;;;;3.43;2.57;;;;;;;5.39;93.66;95722.34;5037209;28;20209;-70
2022/04/05 07:33:04;;;;;;;3.80;2.40;;;;;;;5.49;93.47;95719.41;5037060;28;20212;-70
2022/04/05 07:35:31;;;;;;;2.20;1.93;;;;;;;5.40;93.56;95730.00;5036944;28;20221;-70
2022/04/05 07:37:57;;;;;;;8.13;4.07;;;;;;;5.61;93.18;95707.72;5036269;28;21199;-70
2022/04/05 07:40:27;;;;;;;10.53;2.37;;;;;;;5.58;93.43;95712.41;5036774;28;20216;-70
2022/04/05 07:42:55;;;;;;;3.17;2.67;;;;;;;5.82;92.72;95715.13;5034060;28;20307;-70
2022/04/05 07:45:21;;;;;;;2.00;1.80;;;;;;;5.92;91.70;95714.00;5036517;28;20205;-70
2022/04/05 07:47:48;;;;;;;3.27;1.43;;;;;;;5.53;92.47;95715.50;5036705;28;20225;-70
2022/04/05 07:50:14;;;;;;;4.00;2.47;;;;;;;5.87;91.63;95720.66;5036599;28;20230;-70
2022/04/05 07:52:44;;;;;;;6.67;2.80;;;;;;;5.81;91.15;95718.72;5035596;28;20206;-70
2022/04/05 07:55:11;;;;;;;4.57;2.50;;;;;;;5.76;92.38;95711.34;5035572;28;20474;-70
2022/04/05 07:57:40;;;;;;;4.57;2.73;;;;;;;5.86;92.39;95717.25;5036709;28;20377;-70
2022/04/05 08:00:09;;;;;;;5.97;2.57;;;;;;;6.07;90.60;95710.59;5036118;28;20249;-70
2022/04/05 08:02:36;;;;;;;1.87;1.77;;;;;;;6.08;90.43;95717.44;5035471;28;20779;-70
2022/04/05 08:05:02;;;;;;;3.20;2.03;;;;;;;5.96;91.13;95717.09;5036515;28;20837;-70
2022/04/05 08:07:29;;;;;;;5.93;3.43;;;;;;;6.07;90.18;95714.97;5036101;28;20243;-70
2022/04/05 08:09:56;;;;;;;1.53;1.43;;;;;;;6.11;90.03;95722.34;5035809;28;20205;-70
2022/04/05 08:12:23;;;;;;;7.03;2.70;;;;;;;6.14;89.64;95714.16;5035456;28;20224;-70
2022/04/05 08:14:49;;;;;;;1.70;1.60;;;;;;;6.00;89.68;95714.00;5037074;28;20212;-70
2022/04/05 08:17:17;;;;;;;3.87;2.10;;;;;;;6.22;89.70;95729.06;5036336;28;20217;-70
2022/04/05 08:19:43;;;;;;;4.77;2.00;;;;;;;6.20;88.95;95717.94;5035831;28;20204;-70
2022/04/05 08:22:10;;;;;;;2.97;1.10;;;;;;;6.25;89.31;95729.56;5035537;28;20205;-70
2022/04/05 08:24:36;;;;;;;4.30;2.13;;;;;;;6.39;88.37;95723.66;5036685;28;20326;-70
2022/04/05 08:27:03;;;;;;;3.10;2.30;;;;;;;6.41;88.64;95728.72;5035794;28;20236;-70
2022/04/05 08:29:30;;;;;;;4.80;1.67;;;;;;;6.27;88.99;95742.47;5035928;28;20216;-70
2022/04/05 08:31:56;;;;;;;5.00;2.13;;;;;;;6.62;87.60;95742.97;5036313;28;20212;-70
2022/04/05 08:34:24;;;;;;;4.00;1.93;;;;;;;6.69;87.21;95739.53;5035356;28;20373;-70
2022/04/05 08:36:52;;;;;;;3.93;2.40;;;;;;;6.40;88.64;95746.25;5036192;28;20258;-70
2022/04/05 08:39:18;;;;;;;2.67;2.03;;;;;;;6.55;87.38;95747.19;5035904;28;20562;-70
2022/04/05 08:41:47;;;;;;;3.50;2.30;;;;;;;6.88;85.60;95752.22;5035868;28;20296;-70
2022/04/05 08:44:18;;;;;;;3.53;1.47;;;;;;;6.85;87.20;95738.69;5033917;28;20708;-70
2022/04/05 08:46:45;;;;;;;3.67;1.20;;;;;;;6.62;87.02;95737.72;5035823;28;20319;-70
2022/04/05 08:49:12;;;;;;;3.77;2.27;;;;;;;6.91;86.05;95745.84;5035546;28;20216;-70
2022/04/05 08:51:40;;;;;;;3.83;2.23;;;;;;;7.04;85.85;95727.81;5036120;28;20213;-70
2022/04/05 08:54:07;;;;;;;1.13;1.03;;;;;;;6.95;85.35;95740.13;5035174;28;20205;-70
2022/04/05 08:56:33;;;;;;;7.77;2.77;;;;;;;7.32;84.89;95729.88;5035771;28;20225;-70
2022/04/05 08:59:00;;;;;;;5.73;1.97;;;;;;;7.12;85.25;95749.56;5035922;28;20205;-70
2022/04/05 09:01:29;;;;;;;1.80;1.40;;;;;;;7.08;84.87;95734.38;5035784;28;20213;-70
2022/04/05 09:03:56;;;;;;;2.00;1.80;;;;;;;7.32;84.62;95735.91;5034798;28;20312;-70
2022/04/05 09:06:28;;;;;;;4.73;1.90;;;;;;;7.33;84.11;95742.78;5037832;28;20369;-70
2022/04/05 09:09:07;;;;;;;4.27;2.23;;;;;;;7.58;82.35;95743.50;5039404;28;20405;-70
2022/04/05 09:11:34;;;;;;;6.37;2.37;;;;;;;7.38;82.24;95740.50;5039682;28;20489;-70
2022/04/05 09:14:03;;;;;;;2.83;2.10;;;;;;;7.43;83.63;95732.94;5038800;28;20580;-70
2022/04/05 09:16:31;;;;;;;8.77;3.07;;;;;;;7.43;83.79;95734.72;5039528;28;20229;-70
2022/04/05 09:18:58;;;;;;;3.30;2.60;;;;;;;7.40;83.47;95735.88;5040105;28;20241;-70
2022/04/05 09:21:25;;;;;;;6.07;2.83;;;;;;;7.28;82.99;95742.47;5038977;28;20267;-70
2022/04/05 09:23:52;;;;;;;1.83;1.30;;;;;;;7.24;83.04;95745.59;5038076;28;20215;-71
2022/04/05 09:26:22;;;;;;;3.80;2.13;;;;;;;7.64;83.14;95738.41;5040327;28;20225;-71
2022/04/05 09:28:50;;;;;;;3.03;2.20;;;;;;;7.66;82.83;95752.19;5039559;28;20228;-71
2022/04/05 09:31:19;;;;;;;11.63;2.13;;;;;;;7.51;82.23;95742.53;5039412;28;20208;-71
2022/04/05 09:34:05;;;;;;;3.17;1.90;;;;;;;7.79;81.33;95741.09;5038611;28;20205;-70
2022/04/05 09:36:37;;;;;;;2.50;1.90;;;;;;;7.69;82.01;95751.81;5039226;28;20491;-71
2022/04/05 09:39:17;;;;;;;1.33;1.20;;;;;;;7.86;81.70;95753.38;5038713;28;20692;-71
2022/04/05 09:41:45;;;;;;;2.40;1.90;;;;;;;7.83;81.94;95748.47;5038900;28;20209;-71
2022/04/05 09:44:12;;;;;;;4.00;2.27;;;;;;;7.40;82.86;95762.09;5036624;28;20514;-70
2022/04/05 09:46:42;;;;;;;3.23;1.60;;;;;;;7.74;83.01;95744.25;5038629;28;20225;-70
2022/04/05 09:49:12;;;;;;;3.93;2.80;;;;;;;7.91;82.68;95746.59;5039059;28;20628;-70
2022/04/05 09:51:44;;;;;;;2.50;1.40;;;;;;;7.89;81.73;95753.00;5039054;28;20465;-70
2022/04/05 09:54:27;;;;;;;4.07;2.57;;;;;;;8.00;80.38;95750.00;5037835;28;20209;-71
2022/04/05 09:57:00;;;;;;;1.40;1.30;;;;;;;8.39;81.03;95745.50;5039466;28;20339;-71
2022/04/05 09:59:37;;;;;;;1.90;1.20;;;;;;;8.31;81.44;95746.41;5039486;28;20208;-71
2022/04/05 10:02:09;;;;;;;4.00;2.73;;;;;;;8.15;82.07;95748.31;5039583;28;20216;-71
2022/04/05 10:04:36;;;;;;;6.50;2.13;;;;;;;8.08;81.18;95757.81;5038815;28;20216;-71
2022/04/05 10:07:03;;;;;;;2.47;1.87;;;;;;;8.02;81.03;95750.66;5039077;28;20244;-71
2022/04/05 10:09:29;;;;;;;4.97;1.87;;;;;;;8.05;80.19;95755.56;5039453;28;20201;-70
2022/04/05 10:11:59;;;;;;;4.20;1.83;;;;;;;8.32;79.57;95740.13;5039250;28;20201;-71
2022/04/05 10:14:26;;;;;;;1.20;1.10;;;;;;;8.25;79.85;95749.72;5038180;28;20646;-70
2022/04/05 10:16:53;;;;;;;1.70;1.60;;;;;;;8.45;77.99;95742.19;5038355;28;20222;-72
2022/04/05 10:19:21;;;;;;;3.40;2.23;;;;;;;8.56;76.57;95737.34;5038587;28;20690;-71
2022/04/05 10:21:48;;;;;;;1.77;1.43;;;;;;;8.47;76.94;95732.34;5039169;28;20205;-71
2022/04/05 10:24:15;;;;;;;3.90;1.70;;;;;;;8.37;77.04;95732.56;5038378;28;20205;-69
2022/04/05 10:26:47;;;;;;;4.50;2.47;;;;;;;8.51;76.63;95732.63;5038555;28;20221;-72
2022/04/05 10:29:18;;;;;;;1.57;1.17;;;;;;;8.51;77.81;95735.25;5037813;28;20641;-70
2022/04/05 10:31:52;;;;;;;7.23;3.83;;;;;;;8.91;76.50;95736.69;5038627;28;20209;-70
2022/04/05 10:34:23;;;;;;;3.50;2.13;;;;;;;8.57;77.17;95737.16;5037811;28;20291;-72
2022/04/05 10:37:08;;;;;;;1.90;1.50;;;;;;;8.78;75.30;95739.09;5038152;28;20221;-71
2022/04/05 10:39:34;;;;;;;4.13;1.87;;;;;;;8.58;75.42;95740.63;5038789;28;20205;-70
2022/04/05 10:42:20;;;;;;;4.20;2.17;;;;;;;9.08;75.35;95743.44;5037849;28;20215;-71
2022/04/05 10:44:51;;;;;;;5.43;2.27;;;;;;;8.78;76.28;95741.72;5037361;28;20205;-70
2022/04/05 10:47:18;;;;;;;3.00;1.83;;;;;;;8.50;76.02;95738.88;5037605;28;20228;-70
2022/04/05 10:49:47;;;;;;;4.53;2.53;;;;;;;8.70;74.88;95731.31;5038418;28;20206;-70
2022/04/05 10:52:16;;;;;;;1.77;1.50;;;;;;;8.55;75.97;95726.03;5037610;28;20603;-71
2022/04/05 10:54:44;;;;;;;9.33;2.10;;;;;;;8.64;75.25;95735.47;5038082;28;20687;-70
2022/04/05 10:57:31;;;;;;;2.50;1.43;;;;;;;8.92;75.04;95718.09;5037736;28;20382;-70
2022/04/05 11:00:07;;;;;;;9.30;2.43;;;;;;;9.05;75.39;95725.38;5037291;28;20201;-71
2022/04/05 11:02:43;;;;;;;6.73;2.70;;;;;;;9.13;75.23;95720.88;5036939;28;21283;-72
2022/04/05 11:05:37;;;;;;;5.33;2.63;;;;;;;9.30;73.71;95720.47;5037764;28;20762;-72
2022/04/05 11:08:07;;;;;;;7.63;3.20;;;;;;;9.36;74.76;95721.59;5036975;28;20264;-72
2022/04/05 11:10:46;;;;;;;2.27;1.83;;;;;;;9.20;73.70;95713.88;5038128;28;20205;-70
2022/04/05 11:13:14;;;;;;;6.73;2.90;;;;;;;9.09;74.92;95716.97;5036940;28;20201;-73
2022/04/05 11:15:42;;;;;;;4.63;1.57;;;;;;;9.20;74.77;95721.75;5037269;28;20236;-71
2022/04/05 11:18:09;;;;;;;6.27;2.53;;;;;;;9.47;73.98;95714.06;5037606;28;20197;-72
2022/04/05 11:20:39;;;;;;;3.87;2.57;;;;;;;9.47;74.39;95707.97;5038046;28;20208;-70
2022/04/05 11:23:06;;;;;;;4.73;2.40;;;;;;;9.41;75.10;95709.53;5036995;28;20205;-71
2022/04/05 11:25:32;;;;;;;4.97;2.67;;;;;;;9.61;73.44;95715.03;5037647;28;20314;-73
2022/04/05 11:28:11;;;;;;;4.13;2.90;;;;;;;10.02;73.64;95709.91;5037853;28;20231;-72
2022/04/05 11:30:47;;;;;;;4.13;2.43;;;;;;;10.01;72.37;95708.25;5036704;28;20566;-71
2022/04/05 11:33:35;;;;;;;3.70;2.17;;;;;;;10.29;71.84;95703.91;5036706;28;20204;-73
2022/04/05 11:36:04;;;;;;;4.10;2.03;;;;;;;10.24;71.20;95700.19;5037344;28;21263;-70
2022/04/05 11:38:32;;;;;;;5.63;2.77;;;;;;;9.91;72.39;95705.06;5036712;28;20205;-74
2022/04/05 11:41:02;;;;;;;4.17;2.60;;;;;;;9.97;72.39;95708.84;5037784;28;21308;-73
2022/04/05 11:43:32;;;;;;;3.93;2.00;;;;;;;10.52;71.38;95697.41;5035200;28;20209;-72
2022/04/05 11:46:02;;;;;;;3.93;2.13;;;;;;;10.53;71.83;95693.00;5037262;28;20279;-72